Time;durP1;ratioP1;P1;durP2;ratioP2;P2;SDS_P1;SDS_P2;PMS_P1;PMS_P2;Temp;Humidity;BMP_temperature;BMP_pressure;BME280_temperature;BME280_humidity;BME280_pressure;Samples;Min_cycle;Max_cycle;Signal;HPM_P1;HPM_P2
2023/04/30 00:00:07;;;;;;;5.35;1.85;;;;;;;;;;5015097;28;20418;-69
2023/04/30 00:02:33;;;;;;;7.55;2.13;;;;;;;;;;5015102;28;20026;-74
2023/04/30 00:04:58;;;;;;;7.45;2.05;;;;;;;;;;5014837;28;20092;-70
2023/04/30 00:07:23;;;;;;;4.55;2.33;;;;;;;;;;5014831;28;20037;-67
2023/04/30 00:09:50;;;;;;;5.30;2.50;;;;;;;;;;5014862;28;20033;-75
2023/04/30 00:12:15;;;;;;;10.52;2.30;;;;;;;;;;5014825;28;20022;-72
2023/04/30 00:14:41;;;;;;;10.45;2.33;;;;;;;;;;5014875;28;20037;-76
2023/04/30 00:17:06;;;;;;;5.18;1.88;;;;;;;;;;5014949;28;20035;-71
2023/04/30 00:19:32;;;;;;;8.88;2.20;;;;;;;;;;5014258;28;20179;-67
2023/04/30 00:22:00;;;;;;;11.70;2.65;;;;;;;;;;5014578;28;20038;-65
2023/04/30 00:24:26;;;;;;;8.50;2.05;;;;;;;;;;5014854;28;20176;-70
2023/04/30 00:26:51;;;;;;;6.82;2.20;;;;;;;;;;5014582;28;20495;-65
2023/04/30 00:29:17;;;;;;;6.20;2.03;;;;;;;;;;5014561;28;20039;-69
2023/04/30 00:31:42;;;;;;;7.28;2.28;;;;;;;;;;5014516;28;20018;-72
2023/04/30 00:34:08;;;;;;;4.35;1.80;;;;;;;;;;5014463;28;20431;-66
2023/04/30 00:36:33;;;;;;;9.23;2.67;;;;;;;;;;5014066;28;20029;-71
2023/04/30 00:38:59;;;;;;;9.18;2.30;;;;;;;;;;5014203;28;20045;-64
2023/04/30 00:41:25;;;;;;;5.90;2.10;;;;;;;;;;5014350;28;20049;-67
2023/04/30 00:43:50;;;;;;;8.18;2.03;;;;;;;;;;5012934;28;20399;-66
2023/04/30 00:46:15;;;;;;;6.65;2.00;;;;;;;;;;5014008;28;20036;-67
2023/04/30 00:48:41;;;;;;;10.95;2.47;;;;;;;;;;5014200;28;20026;-68
2023/04/30 00:51:07;;;;;;;5.93;2.30;;;;;;;;;;5013955;28;20021;-65
2023/04/30 00:53:33;;;;;;;8.52;2.10;;;;;;;;;;5014222;28;20050;-67
2023/04/30 00:55:59;;;;;;;7.13;2.03;;;;;;;;;;5014054;28;20391;-68
2023/04/30 00:58:24;;;;;;;8.25;2.42;;;;;;;;;;5014040;28;20026;-71
2023/04/30 01:00:50;;;;;;;7.22;2.10;;;;;;;;;;5014089;28;20025;-70
2023/04/30 01:03:16;;;;;;;12.50;2.45;;;;;;;;;;5013959;28;20026;-76
2023/04/30 01:05:41;;;;;;;8.50;2.22;;;;;;;;;;5013631;28;20472;-70
2023/04/30 01:08:09;;;;;;;8.52;2.17;;;;;;;;;;5013859;28;20029;-74
2023/04/30 01:10:47;;;;;;;7.45;2.13;;;;;;;;;;5013792;28;20498;-75
2023/04/30 01:13:27;;;;;;;5.75;2.03;;;;;;;;;;5012723;28;20034;-75
2023/04/30 01:16:09;;;;;;;7.32;2.55;;;;;;;;;;5013320;28;20022;-74
2023/04/30 01:18:40;;;;;;;8.85;2.25;;;;;;;;;;5013809;28;20030;-74
2023/04/30 01:21:07;;;;;;;10.35;2.17;;;;;;;;;;5013219;28;20050;-75
2023/04/30 01:24:13;;;;;;;4.32;1.75;;;;;;;;;;5013684;28;20052;-75
2023/04/30 01:27:06;;;;;;;10.80;2.35;;;;;;;;;;5008045;28;20060;-75
2023/04/30 01:29:33;;;;;;;6.95;1.65;;;;;;;;;;5012581;28;20022;-72
2023/04/30 01:31:59;;;;;;;6.43;2.20;;;;;;;;;;5013619;28;20474;-75
2023/04/30 01:34:24;;;;;;;5.80;2.10;;;;;;;;;;5013129;28;20033;-73
2023/04/30 01:36:55;;;;;;;7.22;2.13;;;;;;;;;;5012187;28;20025;-75
2023/04/30 01:39:32;;;;;;;9.48;2.17;;;;;;;;;;5013412;28;20030;-74
2023/04/30 01:42:12;;;;;;;7.57;2.20;;;;;;;;;;5013348;28;20022;-71
2023/04/30 01:45:11;;;;;;;5.13;1.90;;;;;;;;;;5013369;28;20495;-74
2023/04/30 01:47:47;;;;;;;6.43;2.38;;;;;;;;;;5013229;28;20037;-74
2023/04/30 01:50:31;;;;;;;4.47;1.92;;;;;;;;;;5013389;28;20468;-76
2023/04/30 01:53:01;;;;;;;7.65;2.20;;;;;;;;;;5013278;28;20391;-76
2023/04/30 01:55:52;;;;;;;9.40;2.40;;;;;;;;;;5013232;28;20030;-76
2023/04/30 01:58:19;;;;;;;9.02;2.33;;;;;;;;;;5013079;28;20475;-75
2023/04/30 02:00:45;;;;;;;6.70;2.00;;;;;;;;;;5013087;28;20048;-75
2023/04/30 02:03:10;;;;;;;6.38;2.10;;;;;;;;;;5012942;28;20030;-76
2023/04/30 02:05:36;;;;;;;6.13;2.05;;;;;;;;;;5013005;28;20034;-74
2023/04/30 02:08:02;;;;;;;7.68;2.10;;;;;;;;;;5012908;28;20041;-75
2023/04/30 02:10:29;;;;;;;6.97;2.47;;;;;;;;;;5013206;28;20018;-74
2023/04/30 02:12:54;;;;;;;6.47;1.90;;;;;;;;;;5013103;28;20080;-72
2023/04/30 02:15:20;;;;;;;10.98;2.03;;;;;;;;;;5012953;28;20021;-75
2023/04/30 02:17:45;;;;;;;6.00;2.22;;;;;;;;;;5012744;28;20029;-76
2023/04/30 02:20:11;;;;;;;3.88;2.00;;;;;;;;;;5012427;28;20049;-76
2023/04/30 02:22:36;;;;;;;4.43;1.90;;;;;;;;;;5013017;28;20026;-75
2023/04/30 02:25:02;;;;;;;6.30;1.80;;;;;;;;;;5012963;28;20028;-75
2023/04/30 02:27:30;;;;;;;5.93;2.20;;;;;;;;;;5013702;28;20029;-75
2023/04/30 02:29:55;;;;;;;6.20;2.03;;;;;;;;;;5016696;28;20064;-74
2023/04/30 02:32:21;;;;;;;4.60;1.98;;;;;;;;;;5016579;28;20049;-75
2023/04/30 02:34:46;;;;;;;8.35;2.30;;;;;;;;;;5016823;28;20064;-70
2023/04/30 02:37:12;;;;;;;7.25;1.92;;;;;;;;;;5016578;28;20444;-76
2023/04/30 02:39:37;;;;;;;6.63;2.75;;;;;;;;;;5016588;28;20030;-76
2023/04/30 02:42:03;;;;;;;10.80;2.38;;;;;;;;;;5016580;28;20072;-76
2023/04/30 02:44:29;;;;;;;8.65;2.60;;;;;;;;;;5016595;28;20024;-70
2023/04/30 02:46:54;;;;;;;11.70;3.47;;;;;;;;;;5016382;28;20483;-76
2023/04/30 02:49:19;;;;;;;4.03;2.28;;;;;;;;;;5016505;28;20026;-76
2023/04/30 02:51:45;;;;;;;8.55;2.70;;;;;;;;;;5016333;28;20444;-72
2023/04/30 02:54:10;;;;;;;6.18;2.20;;;;;;;;;;5015127;28;20037;-73
2023/04/30 02:56:38;;;;;;;7.00;2.42;;;;;;;;;;5016292;28;20478;-76
2023/04/30 02:59:03;;;;;;;6.88;2.45;;;;;;;;;;5016196;28;20479;-76
2023/04/30 03:01:29;;;;;;;7.63;2.20;;;;;;;;;;5016214;28;20028;-74
2023/04/30 03:03:54;;;;;;;7.88;2.45;;;;;;;;;;5016290;28;20415;-72
2023/04/30 03:06:20;;;;;;;5.00;2.30;;;;;;;;;;5016147;28;20256;-71
2023/04/30 03:08:45;;;;;;;6.78;2.30;;;;;;;;;;5016175;28;20145;-76
2023/04/30 03:11:11;;;;;;;10.20;2.10;;;;;;;;;;5014853;28;20033;-73
2023/04/30 03:13:36;;;;;;;4.43;1.83;;;;;;;;;;5014896;28;20025;-76
2023/04/30 03:16:05;;;;;;;4.90;2.08;;;;;;;;;;5015914;28;20372;-67
2023/04/30 03:18:31;;;;;;;9.10;2.22;;;;;;;;;;5015705;28;20410;-68
2023/04/30 03:20:57;;;;;;;9.23;3.55;;;;;;;;;;5015457;28;20108;-70
2023/04/30 03:23:23;;;;;;;14.60;5.20;;;;;;;;;;5015951;28;20034;-73
2023/04/30 03:25:49;;;;;;;6.85;3.97;;;;;;;;;;5015793;28;20034;-69
2023/04/30 03:28:14;;;;;;;6.75;3.15;;;;;;;;;;5015812;28;20030;-71
2023/04/30 03:30:40;;;;;;;7.72;2.60;;;;;;;;;;5015541;28;20053;-65
2023/04/30 03:33:06;;;;;;;9.10;2.40;;;;;;;;;;5015891;28;20030;-72
2023/04/30 03:35:32;;;;;;;4.78;2.20;;;;;;;;;;5015319;28;20018;-72
2023/04/30 03:38:01;;;;;;;8.13;3.00;;;;;;;;;;5015141;28;20076;-71
2023/04/30 03:40:26;;;;;;;8.35;3.03;;;;;;;;;;5015645;28;20026;-72
2023/04/30 03:42:52;;;;;;;6.63;2.58;;;;;;;;;;5015536;28;20049;-68
2023/04/30 03:45:18;;;;;;;5.00;2.15;;;;;;;;;;5015227;28;20022;-69
2023/04/30 03:47:44;;;;;;;9.38;2.42;;;;;;;;;;5015147;28;20038;-69
2023/04/30 03:50:10;;;;;;;5.90;2.35;;;;;;;;;;5015348;28;20033;-74
2023/04/30 03:52:35;;;;;;;6.93;2.10;;;;;;;;;;5015309;28;20078;-74
2023/04/30 03:55:04;;;;;;;6.18;2.20;;;;;;;;;;5015343;28;20030;-77
2023/04/30 03:57:30;;;;;;;11.25;3.65;;;;;;;;;;5015276;28;20495;-77
2023/04/30 03:59:56;;;;;;;6.10;2.67;;;;;;;;;;5014920;28;20057;-76
2023/04/30 04:02:21;;;;;;;8.23;2.58;;;;;;;;;;5013866;28;20030;-76
2023/04/30 04:04:47;;;;;;;8.55;2.90;;;;;;;;;;5015065;28;20036;-77
2023/04/30 04:07:13;;;;;;;13.88;3.42;;;;;;;;;;5014733;28;20040;-76
2023/04/30 04:09:39;;;;;;;10.57;3.17;;;;;;;;;;5014854;28;20026;-76
2023/04/30 04:12:05;;;;;;;10.82;3.30;;;;;;;;;;5015056;28;20067;-76
2023/04/30 04:14:30;;;;;;;9.60;3.03;;;;;;;;;;5014739;28;20101;-76
2023/04/30 04:17:04;;;;;;;9.98;3.20;;;;;;;;;;5014912;28;20165;-76
2023/04/30 04:19:30;;;;;;;11.10;4.10;;;;;;;;;;5014356;28;20061;-76
2023/04/30 04:21:56;;;;;;;8.23;2.85;;;;;;;;;;5014890;28;20029;-76
2023/04/30 04:24:24;;;;;;;11.52;2.70;;;;;;;;;;5014808;28;20396;-76
2023/04/30 04:26:50;;;;;;;9.50;3.80;;;;;;;;;;5014710;28;20030;-75
2023/04/30 04:29:16;;;;;;;15.35;3.80;;;;;;;;;;5014361;28;20088;-76
2023/04/30 04:31:41;;;;;;;9.07;2.85;;;;;;;;;;5014653;28;20029;-75
2023/04/30 04:34:07;;;;;;;7.28;2.78;;;;;;;;;;5014485;28;20361;-75
2023/04/30 04:36:33;;;;;;;7.70;3.38;;;;;;;;;;5014380;28;20029;-75
2023/04/30 04:39:02;;;;;;;9.00;2.80;;;;;;;;;;5014267;28;20029;-76
2023/04/30 04:41:29;;;;;;;6.72;2.90;;;;;;;;;;5014326;28;20025;-75
2023/04/30 04:43:55;;;;;;;7.07;2.53;;;;;;;;;;5014131;28;20844;-73
2023/04/30 04:46:22;;;;;;;9.70;2.97;;;;;;;;;;5014204;28;20113;-74
2023/04/30 04:48:48;;;;;;;10.35;2.88;;;;;;;;;;5013979;28;20036;-75
2023/04/30 04:51:13;;;;;;;6.05;2.63;;;;;;;;;;5013613;28;20486;-76
2023/04/30 04:53:39;;;;;;;8.30;3.10;;;;;;;;;;5014155;28;20133;-75
2023/04/30 04:56:05;;;;;;;7.20;2.92;;;;;;;;;;5014047;28;20021;-74
2023/04/30 04:58:30;;;;;;;11.70;3.05;;;;;;;;;;5013759;28;20525;-75
2023/04/30 05:00:56;;;;;;;10.63;3.10;;;;;;;;;;5014035;28;20030;-76
2023/04/30 05:03:21;;;;;;;7.57;2.90;;;;;;;;;;5014023;28;20096;-77
2023/04/30 05:05:47;;;;;;;6.65;2.47;;;;;;;;;;5013927;28;20036;-75
2023/04/30 05:08:12;;;;;;;8.95;2.83;;;;;;;;;;5013720;28;20105;-75
2023/04/30 05:10:38;;;;;;;7.63;2.88;;;;;;;;;;5013958;28;20024;-75
2023/04/30 05:13:03;;;;;;;10.20;2.45;;;;;;;;;;5012384;28;20033;-72
2023/04/30 05:15:29;;;;;;;7.72;2.97;;;;;;;;;;5013844;28;20049;-72
2023/04/30 05:17:55;;;;;;;8.45;3.13;;;;;;;;;;5013321;28;20462;-74
2023/04/30 05:20:20;;;;;;;5.18;2.75;;;;;;;;;;5013188;28;20074;-69
2023/04/30 05:22:46;;;;;;;8.77;2.92;;;;;;;;;;5013680;28;20029;-75
2023/04/30 05:25:11;;;;;;;9.80;3.00;;;;;;;;;;5049785;23;20049;-76
2023/04/30 05:27:37;;;;;;;11.90;2.63;;;;;;;;;;5033067;28;20368;-75
2023/04/30 05:30:03;;;;;;;7.70;2.95;;;;;;;;;;5033531;28;20025;-76
2023/04/30 05:32:28;;;;;;;8.70;2.45;;;;;;;;;;5033269;28;20017;-76
2023/04/30 05:34:54;;;;;;;7.65;2.95;;;;;;;;;;5033341;28;20029;-77
2023/04/30 05:37:21;;;;;;;6.28;2.53;;;;;;;;;;5032869;28;20029;-76
2023/04/30 05:39:47;;;;;;;9.82;2.50;;;;;;;;;;5032685;28;20032;-64
2023/04/30 05:42:12;;;;;;;7.38;2.60;;;;;;;;;;5033271;28;20033;-75
2023/04/30 05:44:39;;;;;;;9.40;2.80;;;;;;;;;;5033072;28;20387;-71
2023/04/30 05:47:05;;;;;;;11.10;3.30;;;;;;;;;;5032763;28;20033;-76
2023/04/30 05:49:30;;;;;;;9.88;2.80;;;;;;;;;;5032777;28;20204;-77
2023/04/30 05:51:56;;;;;;;8.48;2.88;;;;;;;;;;5032998;28;20032;-75
2023/04/30 05:54:21;;;;;;;8.60;2.88;;;;;;;;;;5032774;28;20503;-74
2023/04/30 05:56:47;;;;;;;6.60;2.80;;;;;;;;;;5032931;28;20135;-76
2023/04/30 05:59:12;;;;;;;11.05;2.90;;;;;;;;;;5032983;28;20402;-69
2023/04/30 06:01:38;;;;;;;8.52;3.00;;;;;;;;;;5032699;28;20029;-66
2023/04/30 06:04:04;;;;;;;9.32;2.85;;;;;;;;;;5032949;28;20109;-75
2023/04/30 06:06:30;;;;;;;6.18;2.90;;;;;;;;;;5032816;28;20029;-70
2023/04/30 06:08:56;;;;;;;6.28;2.45;;;;;;;;;;5032387;28;20025;-68
2023/04/30 06:11:24;;;;;;;4.15;2.13;;;;;;;;;;5033310;28;20025;-80
2023/04/30 06:13:50;;;;;;;9.43;2.70;;;;;;;;;;5033103;28;20033;-75
2023/04/30 06:16:15;;;;;;;5.88;2.15;;;;;;;;;;5020147;28;20021;-73
2023/04/30 06:18:41;;;;;;;7.30;2.30;;;;;;;;;;5013295;28;20034;-70
2023/04/30 06:21:06;;;;;;;6.45;2.58;;;;;;;;;;5029075;28;20103;-71
2023/04/30 06:23:32;;;;;;;7.18;2.90;;;;;;;;;;5027771;28;20071;-70
2023/04/30 06:25:57;;;;;;;6.25;2.80;;;;;;;;;;5012153;28;20525;-75
2023/04/30 06:28:23;;;;;;;9.23;2.55;;;;;;;;;;5024372;28;20034;-68
2023/04/30 06:30:49;;;;;;;11.02;3.03;;;;;;;;;;5032282;28;20032;-71
2023/04/30 06:33:14;;;;;;;8.35;3.03;;;;;;;;;;5032330;28;20064;-72
2023/04/30 06:35:40;;;;;;;8.27;2.40;;;;;;;;;;5032640;28;20021;-76
2023/04/30 06:38:05;;;;;;;8.73;2.80;;;;;;;;;;5031879;28;20390;-76
2023/04/30 06:40:31;;;;;;;15.38;2.80;;;;;;;;;;5032435;28;20022;-76
2023/04/30 06:42:56;;;;;;;8.55;2.65;;;;;;;;;;5032333;28;20033;-67
2023/04/30 06:45:22;;;;;;;6.60;2.40;;;;;;;;;;5048185;28;20029;-68
2023/04/30 06:47:47;;;;;;;12.40;2.90;;;;;;;;;;5032142;28;20490;-76
2023/04/30 06:50:14;;;;;;;9.63;2.30;;;;;;;;;;5032151;28;20025;-76
2023/04/30 06:52:40;;;;;;;5.80;2.70;;;;;;;;;;5031836;28;20022;-66
2023/04/30 06:55:05;;;;;;;9.20;2.97;;;;;;;;;;5032177;28;20044;-71
2023/04/30 06:57:31;;;;;;;7.57;2.47;;;;;;;;;;5031965;28;20025;-67
2023/04/30 06:59:56;;;;;;;5.95;2.47;;;;;;;;;;5031995;28;20032;-69
2023/04/30 07:02:22;;;;;;;7.25;2.75;;;;;;;;;;5031923;28;20052;-64
2023/04/30 07:04:48;;;;;;;9.88;3.03;;;;;;;;;;5032017;28;20022;-66
2023/04/30 07:07:13;;;;;;;10.18;2.50;;;;;;;;;;5031511;28;20057;-63
2023/04/30 07:09:39;;;;;;;9.32;2.83;;;;;;;;;;5031947;28;20064;-68
2023/04/30 07:12:04;;;;;;;9.27;2.50;;;;;;;;;;5032277;28;20025;-66
2023/04/30 07:14:30;;;;;;;5.57;2.15;;;;;;;;;;5034545;28;20528;-64
2023/04/30 07:16:55;;;;;;;6.70;2.25;;;;;;;;;;5035334;28;20429;-63
2023/04/30 07:19:22;;;;;;;6.47;2.38;;;;;;;;;;5035395;28;20022;-65
2023/04/30 07:21:47;;;;;;;5.43;2.08;;;;;;;;;;5035146;28;20083;-68
2023/04/30 07:24:13;;;;;;;6.70;2.35;;;;;;;;;;5035533;28;20029;-67
2023/04/30 07:26:38;;;;;;;12.05;2.50;;;;;;;;;;5035283;28;20107;-68
2023/04/30 07:29:04;;;;;;;3.65;2.10;;;;;;;;;;5035327;28;20034;-72
2023/04/30 07:31:29;;;;;;;8.07;2.50;;;;;;;;;;5035493;28;20041;-68
2023/04/30 07:33:55;;;;;;;5.30;2.10;;;;;;;;;;5035471;28;20426;-67
2023/04/30 07:36:21;;;;;;;5.30;2.50;;;;;;;;;;5035047;28;20482;-71
2023/04/30 07:38:46;;;;;;;6.43;2.17;;;;;;;;;;5035139;28;20025;-70
2023/04/30 07:41:12;;;;;;;5.10;2.38;;;;;;;;;;5035237;28;20384;-65
2023/04/30 07:43:37;;;;;;;6.03;2.35;;;;;;;;;;5033843;28;20475;-75
2023/04/30 07:46:03;;;;;;;10.48;2.40;;;;;;;;;;5034940;28;20032;-63
2023/04/30 07:48:29;;;;;;;5.28;2.35;;;;;;;;;;5034956;28;20032;-67
2023/04/30 07:50:55;;;;;;;6.82;2.22;;;;;;;;;;5034506;28;20512;-74
2023/04/30 07:53:21;;;;;;;4.18;1.98;;;;;;;;;;5034987;28;20133;-68
2023/04/30 07:55:47;;;;;;;5.38;2.50;;;;;;;;;;5034981;28;20105;-68
2023/04/30 07:58:12;;;;;;;5.57;2.53;;;;;;;;;;5034962;28;20432;-65
2023/04/30 08:00:38;;;;;;;5.38;2.38;;;;;;;;;;5034924;28;20034;-72
2023/04/30 08:03:03;;;;;;;7.82;2.55;;;;;;;;;;5034940;28;20161;-65
2023/04/30 08:05:28;;;;;;;8.55;2.15;;;;;;;;;;5034324;28;20116;-63
2023/04/30 08:07:54;;;;;;;6.22;2.30;;;;;;;;;;5034275;28;20035;-66
2023/04/30 08:10:20;;;;;;;8.88;2.50;;;;;;;;;;5034659;28;20079;-63
2023/04/30 08:12:45;;;;;;;5.95;2.38;;;;;;;;;;5034482;28;20460;-69
2023/04/30 08:15:11;;;;;;;5.07;2.20;;;;;;;;;;5034583;28;20041;-64
2023/04/30 08:17:36;;;;;;;5.18;2.40;;;;;;;;;;5034298;28;20033;-66
2023/04/30 08:20:03;;;;;;;4.72;2.13;;;;;;;;;;5034117;28;20475;-64
2023/04/30 08:22:28;;;;;;;8.65;2.53;;;;;;;;;;5034392;28;20421;-70
2023/04/30 08:24:54;;;;;;;6.53;2.25;;;;;;;;;;5034231;28;20035;-66
2023/04/30 08:27:20;;;;;;;5.63;2.05;;;;;;;;;;5033928;28;20099;-63
2023/04/30 08:29:46;;;;;;;6.40;2.40;;;;;;;;;;5034133;28;20029;-69
2023/04/30 08:32:12;;;;;;;4.30;2.10;;;;;;;;;;5032783;28;20463;-71
2023/04/30 08:34:39;;;;;;;5.50;1.90;;;;;;;;;;5033906;28;20030;-63
2023/04/30 08:37:05;;;;;;;5.40;2.35;;;;;;;;;;5033907;28;20426;-70
2023/04/30 08:39:31;;;;;;;6.13;2.17;;;;;;;;;;5033938;28;20483;-66
2023/04/30 08:42:02;;;;;;;7.60;2.72;;;;;;;;;;5033544;28;20113;-64
2023/04/30 08:44:30;;;;;;;7.10;2.50;;;;;;;;;;5033978;28;20059;-66
2023/04/30 08:46:59;;;;;;;7.60;2.67;;;;;;;;;;5033669;28;20065;-64
2023/04/30 08:49:24;;;;;;;5.20;2.50;;;;;;;;;;5033449;28;20025;-74
2023/04/30 08:51:51;;;;;;;8.77;2.60;;;;;;;;;;5033798;28;20032;-62
2023/04/30 08:54:17;;;;;;;5.97;2.55;;;;;;;;;;5033791;28;20427;-73
2023/04/30 08:56:46;;;;;;;6.75;2.35;;;;;;;;;;5033856;28;20025;-70
2023/04/30 08:59:12;;;;;;;9.40;2.38;;;;;;;;;;5033521;28;20056;-74
2023/04/30 09:01:38;;;;;;;7.68;2.35;;;;;;;;;;5049578;28;20028;-70
2023/04/30 09:04:04;;;;;;;5.47;2.00;;;;;;;;;;5053370;28;20377;-71
2023/04/30 09:06:30;;;;;;;5.72;2.13;;;;;;;;;;5053189;28;20402;-77
2023/04/30 09:08:56;;;;;;;7.53;2.60;;;;;;;;;;5053546;28;20021;-75
2023/04/30 09:11:30;;;;;;;5.60;2.35;;;;;;;;;;5053381;28;20017;-64
2023/04/30 09:13:58;;;;;;;6.35;2.50;;;;;;;;;;5053235;28;20043;-65
2023/04/30 09:16:25;;;;;;;7.88;2.40;;;;;;;;;;5053104;28;20027;-66
2023/04/30 09:18:51;;;;;;;5.40;2.30;;;;;;;;;;5052915;28;20112;-64
2023/04/30 09:21:30;;;;;;;5.55;2.45;;;;;;;;;;5034938;28;20060;-66
2023/04/30 09:23:57;;;;;;;6.80;2.85;;;;;;;;;;5031747;28;20313;-68
2023/04/30 09:26:30;;;;;;;8.85;2.30;;;;;;;;;;5032847;28;20076;-72
2023/04/30 09:28:57;;;;;;;7.68;2.83;;;;;;;;;;5033176;28;20030;-74
2023/04/30 09:31:26;;;;;;;4.93;2.30;;;;;;;;;;5032990;28;20021;-76
2023/04/30 09:33:53;;;;;;;6.32;2.08;;;;;;;;;;5032819;28;20026;-75
2023/04/30 09:36:19;;;;;;;5.72;2.05;;;;;;;;;;5032629;28;20453;-76
2023/04/30 09:38:45;;;;;;;6.47;2.42;;;;;;;;;;5032973;28;20028;-76
2023/04/30 09:41:26;;;;;;;8.40;2.50;;;;;;;;;;5032860;28;20097;-76
2023/04/30 09:43:52;;;;;;;4.72;2.25;;;;;;;;;;5032999;28;20030;-76
2023/04/30 09:46:20;;;;;;;6.18;2.00;;;;;;;;;;5032738;28;20048;-75
2023/04/30 09:48:46;;;;;;;3.90;2.08;;;;;;;;;;5032780;28;20430;-75
2023/04/30 09:51:11;;;;;;;7.03;1.95;;;;;;;;;;5033008;28;20017;-76
2023/04/30 09:53:37;;;;;;;7.60;2.00;;;;;;;;;;5032834;28;20037;-76
2023/04/30 09:56:07;;;;;;;6.43;2.17;;;;;;;;;;5032754;28;20471;-73
2023/04/30 09:58:37;;;;;;;6.53;2.25;;;;;;;;;;5032759;28;20026;-75
2023/04/30 10:01:06;;;;;;;4.50;2.00;;;;;;;;;;5032605;28;20025;-67
2023/04/30 10:03:32;;;;;;;6.25;2.30;;;;;;;;;;5032656;28;20072;-75
2023/04/30 10:05:58;;;;;;;6.25;2.15;;;;;;;;;;5032466;28;20064;-75
2023/04/30 10:08:29;;;;;;;5.40;2.45;;;;;;;;;;5032650;28;20025;-75
2023/04/30 10:11:02;;;;;;;4.57;1.90;;;;;;;;;;5032769;28;20041;-70
2023/04/30 10:13:31;;;;;;;5.28;2.20;;;;;;;;;;5032564;28;20360;-71
2023/04/30 10:16:00;;;;;;;5.93;2.08;;;;;;;;;;5032381;28;20364;-73
2023/04/30 10:18:30;;;;;;;3.90;2.28;;;;;;;;;;5032432;28;20374;-71
2023/04/30 10:20:56;;;;;;;5.38;2.20;;;;;;;;;;5032320;28;20038;-74
2023/04/30 10:23:21;;;;;;;5.78;2.30;;;;;;;;;;5031487;28;20033;-74
2023/04/30 10:25:48;;;;;;;4.75;2.28;;;;;;;;;;5032224;28;20049;-69
2023/04/30 10:28:15;;;;;;;8.00;2.17;;;;;;;;;;5032496;28;20025;-69
2023/04/30 10:30:44;;;;;;;4.72;2.15;;;;;;;;;;5032218;28;20033;-64
2023/04/30 10:33:21;;;;;;;5.63;2.13;;;;;;;;;;5032341;28;20021;-73
2023/04/30 10:35:55;;;;;;;4.60;2.00;;;;;;;;;;5031997;28;20036;-70
2023/04/30 10:38:23;;;;;;;5.13;2.08;;;;;;;;;;5032446;28;20406;-64
2023/04/30 10:40:56;;;;;;;4.53;2.08;;;;;;;;;;5032146;28;20034;-72
2023/04/30 10:43:26;;;;;;;6.45;2.13;;;;;;;;;;5032431;28;20105;-71
2023/04/30 10:45:51;;;;;;;11.30;2.77;;;;;;;;;;5032223;28;20025;-67
2023/04/30 10:48:24;;;;;;;7.57;3.70;;;;;;;;;;5032848;28;20022;-74
2023/04/30 10:50:51;;;;;;;6.80;2.22;;;;;;;;;;5036443;28;20021;-67
2023/04/30 10:53:28;;;;;;;4.70;1.75;;;;;;;;;;5036095;28;20029;-77
2023/04/30 10:55:59;;;;;;;8.88;2.03;;;;;;;;;;5035091;28;20485;-63
2023/04/30 10:58:33;;;;;;;4.90;1.85;;;;;;;;;;5036015;28;20037;-68
2023/04/30 11:01:12;;;;;;;10.00;3.10;;;;;;;;;;5036385;28;20041;-76
2023/04/30 11:03:41;;;;;;;4.53;2.20;;;;;;;;;;5035688;28;20108;-79
2023/04/30 11:06:14;;;;;;;5.43;2.07;;;;;;;;;;5040348;28;20079;-70
2023/04/30 11:08:44;;;;;;;7.15;2.15;;;;;;;;;;5055706;28;20356;-70
2023/04/30 11:11:10;;;;;;;4.38;2.08;;;;;;;;;;5055868;28;20072;-81
2023/04/30 11:13:58;;;;;;;9.45;2.28;;;;;;;;;;5055517;28;20478;-75
2023/04/30 11:16:30;;;;;;;5.00;1.90;;;;;;;;;;5055719;28;20079;-74
2023/04/30 11:19:05;;;;;;;9.30;2.17;;;;;;;;;;5055476;28;20140;-73
2023/04/30 11:21:32;;;;;;;5.13;2.30;;;;;;;;;;5035585;28;20084;-69
2023/04/30 11:24:03;;;;;;;5.55;1.98;;;;;;;;;;5035610;28;20486;-72
2023/04/30 11:26:28;;;;;;;5.00;2.20;;;;;;;;;;5039066;28;20096;-63
2023/04/30 11:28:55;;;;;;;6.45;2.65;;;;;;;;;;5035256;28;20033;-63
2023/04/30 11:31:20;;;;;;;5.93;2.08;;;;;;;;;;5035203;28;20025;-77
2023/04/30 11:33:46;;;;;;;5.78;2.08;;;;;;;;;;5035315;28;20029;-76
2023/04/30 11:36:13;;;;;;;8.40;2.20;;;;;;;;;;5033193;28;20072;-69
2023/04/30 11:38:39;;;;;;;6.45;2.00;;;;;;;;;;5029112;28;20049;-68
2023/04/30 11:41:05;;;;;;;4.63;2.05;;;;;;;;;;5035101;28;20479;-69
2023/04/30 11:43:32;;;;;;;5.88;2.10;;;;;;;;;;5026923;28;20022;-67
2023/04/30 11:46:09;;;;;;;6.28;2.00;;;;;;;;;;5047039;28;20036;-65
2023/04/30 11:48:37;;;;;;;6.10;2.42;;;;;;;;;;5054893;28;20079;-70
2023/04/30 11:51:25;;;;;;;5.93;2.20;;;;;;;;;;5054996;28;20100;-73
2023/04/30 11:53:51;;;;;;;7.20;2.05;;;;;;;;;;5054833;28;20113;-73
2023/04/30 11:56:24;;;;;;;5.72;2.40;;;;;;;;;;5054600;28;20033;-68
2023/04/30 11:58:51;;;;;;;4.70;1.95;;;;;;;;;;5054384;28;20028;-66
2023/04/30 12:01:17;;;;;;;6.20;2.20;;;;;;;;;;5054733;28;20024;-66
2023/04/30 12:03:47;;;;;;;4.28;2.08;;;;;;;;;;5054706;28;20053;-65
2023/04/30 12:06:24;;;;;;;7.30;2.17;;;;;;;;;;5054606;28;20068;-70
2023/04/30 12:08:55;;;;;;;8.98;2.22;;;;;;;;;;5054564;28;20033;-73
2023/04/30 12:11:26;;;;;;;8.93;2.35;;;;;;;;;;5054357;28;20021;-65
2023/04/30 12:13:52;;;;;;;4.72;2.10;;;;;;;;;;5054293;28;20033;-68
2023/04/30 12:16:18;;;;;;;5.03;2.05;;;;;;;;;;5054485;28;20040;-72
2023/04/30 12:18:44;;;;;;;5.03;2.20;;;;;;;;;;5054105;28;20029;-65
2023/04/30 12:21:09;;;;;;;8.13;2.58;;;;;;;;;;5037387;28;20048;-67
2023/04/30 12:23:35;;;;;;;5.38;2.15;;;;;;;;;;5034711;28;20025;-79
2023/04/30 12:26:00;;;;;;;5.47;2.40;;;;;;;;;;5035502;28;20049;-80
2023/04/30 12:28:27;;;;;;;6.10;2.40;;;;;;;;;;5034956;28;20029;-71
2023/04/30 12:30:52;;;;;;;4.50;2.10;;;;;;;;;;5034316;28;20463;-72
2023/04/30 12:33:18;;;;;;;5.75;2.10;;;;;;;;;;5034233;28;20040;-75
2023/04/30 12:35:44;;;;;;;4.72;2.03;;;;;;;;;;5033866;28;20030;-72
2023/04/30 12:38:10;;;;;;;9.45;2.10;;;;;;;;;;5034009;28;20026;-73
2023/04/30 12:40:35;;;;;;;5.72;2.05;;;;;;;;;;5033855;28;20044;-76
2023/04/30 12:43:01;;;;;;;5.35;2.50;;;;;;;;;;5034055;28;20049;-77
2023/04/30 12:45:52;;;;;;;7.55;2.53;;;;;;;;;;5033592;28;20025;-77
2023/04/30 12:48:25;;;;;;;6.80;2.10;;;;;;;;;;5033805;28;20037;-76
2023/04/30 12:50:55;;;;;;;6.47;2.20;;;;;;;;;;5033919;28;20030;-75
2023/04/30 12:53:21;;;;;;;6.53;2.03;;;;;;;;;;5033858;28;20028;-76
2023/04/30 12:56:15;;;;;;;7.28;2.05;;;;;;;;;;5033501;28;20251;-78
2023/04/30 12:58:46;;;;;;;6.53;2.15;;;;;;;;;;5033595;28;20037;-76
2023/04/30 13:01:13;;;;;;;8.05;2.42;;;;;;;;;;5033726;28;20163;-78
2023/04/30 13:03:39;;;;;;;4.60;2.05;;;;;;;;;;5032223;28;20398;-80
2023/04/30 13:06:06;;;;;;;5.43;2.40;;;;;;;;;;5033476;28;20489;-74
2023/04/30 13:08:31;;;;;;;6.80;2.40;;;;;;;;;;5033568;28;20072;-77
2023/04/30 13:10:57;;;;;;;5.18;2.10;;;;;;;;;;5032455;28;20026;-78
2023/04/30 13:13:22;;;;;;;6.80;2.15;;;;;;;;;;5033800;28;20032;-74
2023/04/30 13:15:48;;;;;;;3.88;2.00;;;;;;;;;;5033582;28;20025;-73
2023/04/30 13:18:15;;;;;;;5.82;2.45;;;;;;;;;;5033536;28;20520;-77
2023/04/30 13:20:42;;;;;;;7.28;2.20;;;;;;;;;;5033238;28;20040;-79
2023/04/30 13:23:08;;;;;;;8.15;3.13;;;;;;;;;;5033562;28;20029;-69
2023/04/30 13:25:35;;;;;;;8.15;1.98;;;;;;;;;;5047188;28;20081;-77
2023/04/30 13:28:00;;;;;;;6.30;2.20;;;;;;;;;;5051345;28;20506;-78
2023/04/30 13:30:26;;;;;;;5.03;2.13;;;;;;;;;;5052205;28;20036;-75
2023/04/30 13:32:51;;;;;;;6.28;2.13;;;;;;;;;;5052407;28;20486;-76
2023/04/30 13:35:18;;;;;;;5.38;1.92;;;;;;;;;;5050291;28;20025;-75
2023/04/30 13:37:43;;;;;;;6.93;2.50;;;;;;;;;;5032705;28;20044;-75
2023/04/30 13:40:09;;;;;;;9.70;2.95;;;;;;;;;;5032684;28;20025;-77
2023/04/30 13:42:38;;;;;;;6.63;2.47;;;;;;;;;;5033068;28;20451;-77
2023/04/30 13:45:05;;;;;;;7.15;2.38;;;;;;;;;;5033170;28;20119;-78
2023/04/30 13:47:31;;;;;;;3.53;1.92;;;;;;;;;;5030991;28;20088;-79
2023/04/30 13:49:56;;;;;;;11.40;2.85;;;;;;;;;;5032103;28;20061;-64
2023/04/30 13:52:22;;;;;;;8.02;2.10;;;;;;;;;;5031864;28;20026;-73
2023/04/30 13:54:48;;;;;;;6.05;2.05;;;;;;;;;;5031632;28;20378;-77
2023/04/30 13:57:13;;;;;;;5.20;2.10;;;;;;;;;;5031923;28;20022;-77
2023/04/30 13:59:39;;;;;;;5.25;2.05;;;;;;;;;;5032188;28;20021;-70
2023/04/30 14:02:04;;;;;;;6.10;2.80;;;;;;;;;;5032778;28;20044;-71
2023/04/30 14:04:30;;;;;;;4.63;1.88;;;;;;;;;;5032899;28;20126;-76
2023/04/30 14:06:56;;;;;;;7.25;2.65;;;;;;;;;;5032765;28;20041;-67
2023/04/30 14:09:22;;;;;;;5.03;1.90;;;;;;;;;;5032560;28;20529;-66
2023/04/30 14:11:48;;;;;;;4.82;2.10;;;;;;;;;;5032286;28;20025;-66
2023/04/30 14:14:13;;;;;;;8.05;3.90;;;;;;;;;;5032667;28;20030;-75
2023/04/30 14:16:39;;;;;;;6.95;2.08;;;;;;;;;;5032845;28;20036;-64
2023/04/30 14:19:05;;;;;;;3.65;1.80;;;;;;;;;;5032585;28;20120;-66
2023/04/30 14:21:32;;;;;;;4.10;2.20;;;;;;;;;;5032512;28;20042;-76
2023/04/30 14:23:57;;;;;;;4.82;2.53;;;;;;;;;;5035976;28;20091;-76
2023/04/30 14:26:23;;;;;;;6.40;2.58;;;;;;;;;;5036568;28;20050;-70
2023/04/30 14:28:48;;;;;;;6.72;2.53;;;;;;;;;;5036819;28;20094;-69
2023/04/30 14:31:14;;;;;;;7.22;2.50;;;;;;;;;;5036568;28;20152;-67
2023/04/30 14:33:43;;;;;;;5.53;2.05;;;;;;;;;;5036630;28;20475;-69
2023/04/30 14:36:08;;;;;;;4.63;1.80;;;;;;;;;;5036377;28;20029;-66
2023/04/30 14:38:34;;;;;;;8.05;2.40;;;;;;;;;;5036468;28;20025;-70
2023/04/30 14:40:59;;;;;;;10.55;3.20;;;;;;;;;;5036523;28;20025;-68